createdAt,value
2022-08-30T00:01:34.063Z,1.00
2022-08-30T00:04:03.785Z,1.30
2022-08-30T00:06:32.970Z,1.20
2022-08-30T00:09:00.859Z,1.65
2022-08-30T00:11:29.358Z,1.30
2022-08-30T00:13:58.064Z,1.13
2022-08-30T00:16:26.905Z,1.20
2022-08-30T00:18:55.984Z,1.52
2022-08-30T00:21:23.936Z,1.08
2022-08-30T00:23:53.114Z,1.20
2022-08-30T00:26:22.076Z,0.90
2022-08-30T00:28:49.841Z,0.93
2022-08-30T00:31:17.563Z,1.00
2022-08-30T00:33:45.653Z,1.23
2022-08-30T00:36:13.621Z,1.15
2022-08-30T00:38:41.308Z,1.02
2022-08-30T00:41:10.692Z,1.13
2022-08-30T00:43:38.711Z,1.20
2022-08-30T00:46:08.518Z,1.00
2022-08-30T00:48:40.964Z,0.98
2022-08-30T00:51:11.786Z,1.15
2022-08-30T00:53:43.747Z,0.93
2022-08-30T00:56:13.549Z,1.20
2022-08-30T00:58:46.164Z,1.23
2022-08-30T01:01:14.724Z,1.10
2022-08-30T01:03:44.390Z,1.10
2022-08-30T01:06:15.741Z,1.30
2022-08-30T01:08:43.959Z,1.00
2022-08-30T01:11:14.787Z,0.95
2022-08-30T01:13:43.162Z,0.90
2022-08-30T01:16:11.640Z,1.10
2022-08-30T01:18:39.809Z,1.15
2022-08-30T01:21:16.126Z,1.20
2022-08-30T01:23:47.487Z,1.10
2022-08-30T01:26:17.413Z,0.93
2022-08-30T01:28:53.192Z,1.02
2022-08-30T01:31:21.038Z,0.95
2022-08-30T01:33:48.774Z,1.25
2022-08-30T01:36:17.403Z,1.08
2022-08-30T01:38:49.668Z,1.05
2022-08-30T01:41:21.594Z,0.95
2022-08-30T01:43:50.533Z,1.00
2022-08-30T01:46:21.209Z,1.13
2022-08-30T01:48:52.985Z,1.13
2022-08-30T01:51:24.481Z,1.33
2022-08-30T01:53:54.373Z,0.90
2022-08-30T01:56:22.961Z,1.08
2022-08-30T01:58:50.914Z,1.13
2022-08-30T02:01:23.156Z,0.90
2022-08-30T02:03:51.754Z,1.35
2022-08-30T02:06:20.966Z,0.93
2022-08-30T02:08:49.307Z,1.00
2022-08-30T02:11:18.834Z,0.90
2022-08-30T02:13:47.370Z,0.93
2022-08-30T02:16:17.864Z,0.82
2022-08-30T02:18:46.844Z,1.05
2022-08-30T02:21:14.668Z,1.38
2022-08-30T02:23:43.319Z,0.90
2022-08-30T02:26:11.764Z,1.40
2022-08-30T02:28:49.457Z,0.93
2022-08-30T02:31:20.435Z,0.90
2022-08-30T02:33:50.929Z,1.30
2022-08-30T02:36:20.189Z,1.10
2022-08-30T02:38:47.958Z,0.98
2022-08-30T02:41:15.965Z,1.10
2022-08-30T02:43:45.394Z,1.30
2022-08-30T02:46:13.462Z,1.00
2022-08-30T02:48:41.258Z,1.27
2022-08-30T02:51:12.393Z,1.25
2022-08-30T02:53:41.036Z,1.20
2022-08-30T02:56:09.368Z,1.10
2022-08-30T02:58:37.483Z,1.70
2022-08-30T03:01:07.401Z,1.40
2022-08-30T03:03:35.233Z,1.13
2022-08-30T03:06:03.524Z,1.00
2022-08-30T03:08:31.521Z,1.08
2022-08-30T03:11:00.084Z,1.05
2022-08-30T03:13:27.985Z,1.05
2022-08-30T03:15:55.679Z,1.10
2022-08-30T03:18:26.572Z,0.90
2022-08-30T03:20:54.990Z,1.10
2022-08-30T03:23:24.348Z,1.00
2022-08-30T03:25:53.596Z,0.90
2022-08-30T03:28:21.719Z,1.27
2022-08-30T03:30:49.666Z,0.88
2022-08-30T03:33:18.232Z,1.10
2022-08-30T03:35:48.119Z,1.20
2022-08-30T03:38:16.035Z,1.30
2022-08-30T03:40:44.028Z,1.02
2022-08-30T03:43:12.245Z,1.23
2022-08-30T03:45:40.418Z,1.13
2022-08-30T03:48:08.328Z,1.05
2022-08-30T03:50:36.929Z,1.20
2022-08-30T03:53:05.909Z,1.17
2022-08-30T03:55:33.834Z,1.63
2022-08-30T03:58:01.457Z,1.40
2022-08-30T04:00:29.715Z,1.60
2022-08-30T04:02:57.419Z,1.58
2022-08-30T04:05:25.141Z,1.02
2022-08-30T04:07:53.041Z,3.67
2022-08-30T04:10:23.016Z,1.65
2022-08-30T04:12:51.311Z,1.27
2022-08-30T04:15:20.642Z,3.40
2022-08-30T04:17:48.671Z,2.60
2022-08-30T04:20:17.575Z,1.45
2022-08-30T04:22:45.422Z,4.30
2022-08-30T04:25:15.668Z,1.50
2022-08-30T04:27:45.541Z,1.50
2022-08-30T04:30:15.172Z,1.80
2022-08-30T04:32:43.762Z,1.67
2022-08-30T04:35:11.941Z,1.60
2022-08-30T04:37:40.384Z,1.98
2022-08-30T04:40:09.924Z,1.52
2022-08-30T04:42:37.759Z,2.10
2022-08-30T04:45:09.618Z,1.30
2022-08-30T04:47:39.043Z,1.38
2022-08-30T04:50:08.463Z,1.70
2022-08-30T04:52:36.393Z,1.20
2022-08-30T04:55:05.378Z,1.35
2022-08-30T04:57:33.115Z,1.40
2022-08-30T05:00:00.854Z,1.55
2022-08-30T05:02:30.027Z,1.30
2022-08-30T05:05:24.010Z,1.20
2022-08-30T05:07:53.597Z,1.02
2022-08-30T05:10:21.366Z,1.50
2022-08-30T05:12:49.147Z,1.30
2022-08-30T05:15:17.247Z,1.48
2022-08-30T05:17:46.712Z,1.40
2022-08-30T05:20:14.753Z,1.30
2022-08-30T05:22:49.907Z,1.42
2022-08-30T05:25:23.650Z,1.92
2022-08-30T05:27:52.265Z,1.45
2022-08-30T05:30:20.787Z,1.30
2022-08-30T05:32:50.128Z,1.30
2022-08-30T05:35:23.501Z,1.33
2022-08-30T05:37:53.638Z,1.95
2022-08-30T05:40:22.052Z,1.20
2022-08-30T05:42:49.838Z,1.40
2022-08-30T05:45:17.869Z,1.35
2022-08-30T05:47:47.560Z,1.33
2022-08-30T05:50:16.821Z,1.52
2022-08-30T05:52:45.228Z,1.45
2022-08-30T05:55:14.235Z,1.73
2022-08-30T05:57:42.400Z,1.30
2022-08-30T06:00:14.299Z,1.63
2022-08-30T06:02:43.220Z,1.60
2022-08-30T06:05:13.042Z,1.63
2022-08-30T06:07:44.410Z,1.63
2022-08-30T06:10:13.142Z,1.55
2022-08-30T06:12:43.015Z,1.35
2022-08-30T06:15:12.005Z,1.42
2022-08-30T06:17:39.893Z,2.05
2022-08-30T06:20:09.102Z,1.67
2022-08-30T06:22:38.659Z,1.40
2022-08-30T06:25:09.077Z,1.60
2022-08-30T06:27:36.905Z,1.27
2022-08-30T06:30:08.228Z,1.30
2022-08-30T06:32:36.193Z,1.50
2022-08-30T06:35:04.656Z,1.38
2022-08-30T06:37:33.058Z,1.33
2022-08-30T06:40:02.299Z,1.30
2022-08-30T06:42:33.010Z,1.33
2022-08-30T06:45:01.771Z,1.55
2022-08-30T06:47:29.612Z,2.15
2022-08-30T06:49:58.209Z,1.30
2022-08-30T06:52:26.566Z,1.50
2022-08-30T06:54:54.949Z,1.40
2022-08-30T06:57:22.743Z,1.30
2022-08-30T06:59:57.272Z,1.20
2022-08-30T07:02:27.431Z,1.45
2022-08-30T07:04:55.361Z,1.38
2022-08-30T07:07:23.193Z,1.40
2022-08-30T07:09:51.071Z,1.20
2022-08-30T07:12:18.836Z,1.20
2022-08-30T07:14:46.547Z,1.50
2022-08-30T07:17:34.944Z,1.27
2022-08-30T07:20:03.902Z,1.40
2022-08-30T07:22:33.237Z,1.38
2022-08-30T07:25:01.554Z,1.10
2022-08-30T07:27:29.549Z,1.38
2022-08-30T07:29:58.912Z,1.25
2022-08-30T07:32:28.013Z,1.40
2022-08-30T07:34:56.596Z,1.45
2022-08-30T07:37:24.440Z,1.50
2022-08-30T07:39:52.299Z,1.15
2022-08-30T07:42:20.337Z,1.40
2022-08-30T07:44:48.672Z,1.38
2022-08-30T07:47:16.792Z,1.60
2022-08-30T07:49:45.902Z,1.38
2022-08-30T07:52:13.879Z,1.30
2022-08-30T07:54:43.003Z,1.58
2022-08-30T07:57:11.032Z,1.42
2022-08-30T07:59:38.662Z,1.58
2022-08-30T08:02:06.528Z,1.45
2022-08-30T08:04:35.611Z,1.17
2022-08-30T08:07:04.941Z,1.40
2022-08-30T08:09:34.006Z,1.52
2022-08-30T08:12:02.139Z,1.45
2022-08-30T08:14:29.950Z,1.52
2022-08-30T08:16:58.003Z,1.70
2022-08-30T08:19:25.779Z,1.23
2022-08-30T08:22:19.532Z,1.75
2022-08-30T08:24:46.493Z,1.55
2022-08-30T08:27:14.499Z,1.27
2022-08-30T08:29:42.378Z,1.23
2022-08-30T08:32:10.094Z,1.92
2022-08-30T08:34:38.371Z,1.27
2022-08-30T08:37:06.132Z,2.20
2022-08-30T08:39:33.898Z,1.15
2022-08-30T08:42:11.667Z,1.38
2022-08-30T08:44:55.272Z,1.48
2022-08-30T08:47:29.934Z,1.48
2022-08-30T08:50:00.602Z,1.33
2022-08-30T08:52:51.960Z,1.25
2022-08-30T08:55:23.357Z,0.90
2022-08-30T08:57:55.172Z,1.13
2022-08-30T09:00:24.926Z,0.90
2022-08-30T09:02:58.779Z,1.02
2022-08-30T09:05:30.198Z,1.20
2022-08-30T09:08:04.552Z,1.08
2022-08-30T09:10:49.827Z,0.90
2022-08-30T09:13:22.877Z,0.70
2022-08-30T09:15:55.223Z,0.77
2022-08-30T09:18:42.844Z,0.75
2022-08-30T09:21:15.038Z,0.80
2022-08-30T09:23:50.494Z,0.70
2022-08-30T09:26:30.144Z,0.68
2022-08-30T09:29:00.996Z,0.88
2022-08-30T09:31:31.184Z,0.80
2022-08-30T09:34:03.809Z,0.82
2022-08-30T09:36:35.336Z,0.95
2022-08-30T09:39:16.892Z,0.80
2022-08-30T09:41:48.256Z,0.88
2022-08-30T09:44:18.152Z,0.98
2022-08-30T09:46:48.817Z,0.70
2022-08-30T09:49:31.009Z,1.20
2022-08-30T09:52:20.896Z,0.90
2022-08-30T09:55:09.431Z,0.90
2022-08-30T09:57:44.822Z,1.00
2022-08-30T10:00:18.371Z,0.90
2022-08-30T10:02:59.955Z,0.70
2022-08-30T10:05:36.129Z,0.70
2022-08-30T10:08:13.234Z,0.98
2022-08-30T10:10:50.602Z,0.90
2022-08-30T10:13:43.865Z,0.82
2022-08-30T10:16:22.713Z,1.10
2022-08-30T10:18:58.001Z,1.10
2022-08-30T10:21:31.899Z,1.00
2022-08-30T10:24:04.940Z,0.80
2022-08-30T10:26:38.394Z,0.80
2022-08-30T10:29:14.680Z,1.27
2022-08-30T10:31:49.374Z,0.90
2022-08-30T10:34:21.700Z,0.70
2022-08-30T10:36:53.611Z,1.20
2022-08-30T10:39:25.613Z,0.90
2022-08-30T10:42:04.118Z,1.30
2022-08-30T10:44:38.354Z,1.20
2022-08-30T10:50:15.065Z,1.27
2022-08-30T10:52:48.426Z,1.20
2022-08-30T10:55:21.843Z,1.20
2022-08-30T10:57:51.802Z,1.10
2022-08-30T11:00:25.843Z,1.10
2022-08-30T11:03:25.972Z,0.85
2022-08-30T11:06:09.692Z,1.20
2022-08-30T11:08:55.801Z,1.00
2022-08-30T11:11:34.114Z,1.10
2022-08-30T11:14:06.064Z,1.05
2022-08-30T11:16:39.735Z,1.27
2022-08-30T11:19:18.902Z,0.90
2022-08-30T11:21:49.343Z,1.05
2022-08-30T11:24:21.979Z,1.00
2022-08-30T11:26:59.288Z,1.10
2022-08-30T11:29:43.310Z,1.27
2022-08-30T11:32:23.864Z,0.90
2022-08-30T11:34:58.974Z,1.30
2022-08-30T11:37:40.416Z,1.02
2022-08-30T11:40:14.288Z,1.25
2022-08-30T11:42:46.550Z,1.15
2022-08-30T11:45:46.954Z,1.30
2022-08-30T11:48:53.882Z,1.58
2022-08-30T11:52:23.784Z,1.00
2022-08-30T11:54:59.986Z,1.00
2022-08-30T11:57:32.505Z,1.05
2022-08-30T12:00:08.165Z,1.10
2022-08-30T12:02:55.603Z,1.00
2022-08-30T12:05:52.823Z,1.00
2022-08-30T12:08:47.547Z,0.90
2022-08-30T12:12:04.401Z,1.65
2022-08-30T12:14:52.576Z,1.30
2022-08-30T12:17:42.883Z,1.15
2022-08-30T12:20:19.431Z,0.93
2022-08-30T12:22:50.383Z,1.10
2022-08-30T12:25:25.039Z,0.98
2022-08-30T12:27:53.095Z,0.95
2022-08-30T12:30:28.285Z,1.00
2022-08-30T12:32:56.270Z,1.15
2022-08-30T12:35:28.946Z,1.13
2022-08-30T12:38:00.165Z,0.80
2022-08-30T12:40:31.072Z,0.85
2022-08-30T12:43:02.734Z,1.00
2022-08-30T12:45:39.229Z,1.02
2022-08-30T12:48:11.033Z,1.13
2022-08-30T12:50:51.593Z,0.80
2022-08-30T12:53:27.376Z,0.77
2022-08-30T12:56:00.468Z,0.95
2022-08-30T12:58:43.994Z,0.95
2022-08-30T13:01:19.395Z,1.10
2022-08-30T13:03:58.273Z,1.08
2022-08-30T13:06:50.422Z,1.10
2022-08-30T13:09:28.108Z,1.10
2022-08-30T13:12:02.546Z,1.05
2022-08-30T13:14:36.914Z,0.85
2022-08-30T13:17:10.330Z,0.80
2022-08-30T13:19:41.124Z,0.90
2022-08-30T13:22:29.182Z,0.73
2022-08-30T13:24:57.907Z,0.90
2022-08-30T13:27:27.093Z,0.80
2022-08-30T13:29:55.444Z,0.90
2022-08-30T13:32:23.389Z,0.98
2022-08-30T13:34:51.508Z,0.90
2022-08-30T13:40:13.479Z,0.98
2022-08-30T13:42:42.772Z,0.88
2022-08-30T13:48:02.659Z,0.77
2022-08-30T13:50:30.696Z,0.95
2022-08-30T13:52:58.336Z,1.10
2022-08-30T13:55:27.597Z,1.00
2022-08-30T13:57:56.750Z,1.13
2022-08-30T14:00:25.577Z,0.70
2022-08-30T14:02:55.891Z,0.82
2022-08-30T14:11:04.272Z,0.90
2022-08-30T14:13:32.557Z,0.80
2022-08-30T14:18:50.140Z,0.73
2022-08-30T14:21:21.289Z,0.60
2022-08-30T14:23:51.977Z,0.90
2022-08-30T14:26:23.354Z,0.90
2022-08-30T14:28:52.285Z,1.08
2022-08-30T14:31:20.527Z,0.95
2022-08-30T14:33:48.765Z,0.68
2022-08-30T14:36:16.768Z,0.90
2022-08-30T14:38:44.784Z,0.88
2022-08-30T14:41:12.668Z,1.00
2022-08-30T14:43:42.155Z,0.98
2022-08-30T14:46:11.138Z,0.90
2022-08-30T14:48:39.992Z,0.98
2022-08-30T14:51:13.720Z,1.00
2022-08-30T14:53:41.956Z,1.10
2022-08-30T14:56:11.577Z,1.15
2022-08-30T14:58:40.899Z,1.50
2022-08-30T15:01:09.781Z,1.10
2022-08-30T15:03:38.724Z,1.08
2022-08-30T15:06:07.115Z,1.60
2022-08-30T15:08:37.292Z,0.90
2022-08-30T15:11:09.521Z,0.88
2022-08-30T15:13:37.718Z,1.05
2022-08-30T15:16:13.135Z,1.30
2022-08-30T15:18:41.719Z,0.80
2022-08-30T15:21:09.889Z,1.83
2022-08-30T15:23:37.916Z,1.70
2022-08-30T15:26:08.133Z,0.88
2022-08-30T15:28:37.060Z,1.15
2022-08-30T15:31:08.550Z,1.20
2022-08-30T15:33:38.454Z,1.40
2022-08-30T15:36:07.562Z,1.50
2022-08-30T15:38:35.732Z,1.40
2022-08-30T15:41:05.743Z,1.75
2022-08-30T15:43:33.850Z,9.40
2022-08-30T15:46:16.136Z,11.18
2022-08-30T15:48:46.062Z,3.10
2022-08-30T15:51:14.184Z,9.82
2022-08-30T15:53:42.824Z,6.13
2022-08-30T15:56:11.304Z,6.00
2022-08-30T15:58:39.163Z,1.60
2022-08-30T16:01:07.648Z,1.70
2022-08-30T16:03:37.752Z,2.83
2022-08-30T16:06:12.100Z,2.80
2022-08-30T16:08:39.885Z,2.10
2022-08-30T16:11:08.085Z,2.40
2022-08-30T16:13:35.750Z,1.50
2022-08-30T16:16:04.452Z,1.00
2022-08-30T16:18:32.465Z,2.40
2022-08-30T16:21:04.788Z,1.58
2022-08-30T16:23:35.140Z,2.03
2022-08-30T16:26:03.413Z,3.22
2022-08-30T16:28:32.261Z,2.25
2022-08-30T16:30:59.929Z,1.15
2022-08-30T16:33:30.293Z,1.33
2022-08-30T16:35:58.457Z,3.10
2022-08-30T16:38:27.893Z,2.50
2022-08-30T16:40:57.648Z,2.00
2022-08-30T16:43:25.520Z,1.00
2022-08-30T16:45:53.756Z,0.90
2022-08-30T16:48:21.607Z,1.60
2022-08-30T16:50:49.320Z,1.80
2022-08-30T16:53:17.443Z,0.45
2022-08-30T16:55:46.023Z,0.85
2022-08-30T16:58:18.963Z,1.75
2022-08-30T17:00:50.167Z,0.63
2022-08-30T17:03:19.030Z,1.73
2022-08-30T17:05:48.914Z,2.75
2022-08-30T17:08:18.032Z,1.00
2022-08-30T17:10:49.723Z,2.53
2022-08-30T17:13:19.601Z,1.00
2022-08-30T17:15:48.036Z,0.93
2022-08-30T17:18:18.811Z,0.93
2022-08-30T17:20:47.146Z,1.40
2022-08-30T17:23:15.098Z,0.60
2022-08-30T17:25:44.067Z,0.50
2022-08-30T17:28:11.877Z,1.15
2022-08-30T17:30:41.208Z,2.65
2022-08-30T17:33:14.954Z,0.93
2022-08-30T17:35:45.793Z,0.95
2022-08-30T17:38:14.431Z,0.80
2022-08-30T17:40:42.123Z,0.70
2022-08-30T17:43:09.872Z,1.02
2022-08-30T17:45:37.760Z,1.05
2022-08-30T17:48:07.811Z,0.80
2022-08-30T17:50:36.043Z,0.82
2022-08-30T17:53:03.864Z,0.60
2022-08-30T17:55:31.928Z,0.80
2022-08-30T17:58:00.557Z,0.70
2022-08-30T18:00:28.789Z,0.70
2022-08-30T18:02:57.614Z,0.68
2022-08-30T18:05:26.946Z,0.85
2022-08-30T18:07:54.598Z,0.70
2022-08-30T18:10:26.783Z,0.80
2022-08-30T18:13:01.245Z,0.60
2022-08-30T18:15:30.594Z,0.98
2022-08-30T18:17:58.359Z,0.65
2022-08-30T18:20:27.406Z,0.40
2022-08-30T18:22:59.015Z,0.63
2022-08-30T18:25:26.871Z,0.45
2022-08-30T18:27:58.402Z,0.38
2022-08-30T18:30:34.004Z,0.40
2022-08-30T18:33:06.771Z,0.70
2022-08-30T18:35:37.572Z,0.63
2022-08-30T18:38:05.820Z,0.93
2022-08-30T18:40:33.855Z,0.73
2022-08-30T18:43:07.598Z,0.57
2022-08-30T18:45:35.624Z,0.73
2022-08-30T18:48:04.246Z,0.80
2022-08-30T18:50:33.038Z,1.00
2022-08-30T18:53:02.268Z,0.73
2022-08-30T18:55:30.033Z,1.00
2022-08-30T18:57:57.933Z,0.90
2022-08-30T19:00:30.068Z,0.90
2022-08-30T19:02:58.246Z,0.60
2022-08-30T19:05:26.834Z,0.50
2022-08-30T19:07:55.374Z,0.80
2022-08-30T19:10:27.904Z,0.88
2022-08-30T19:12:56.416Z,0.80
2022-08-30T19:15:24.179Z,0.88
2022-08-30T19:17:51.925Z,0.80
2022-08-30T19:20:22.631Z,0.60
2022-08-30T19:23:19.551Z,1.23
2022-08-30T19:25:42.226Z,0.95
2022-08-30T19:28:10.779Z,0.60
2022-08-30T19:30:38.761Z,1.88
2022-08-30T19:33:06.625Z,0.70
2022-08-30T19:35:39.351Z,0.90
2022-08-30T19:38:06.954Z,0.93
2022-08-30T19:40:34.675Z,1.13
2022-08-30T19:43:05.284Z,1.30
2022-08-30T19:45:33.882Z,1.08
2022-08-30T19:48:02.306Z,1.00
2022-08-30T19:50:29.931Z,0.90
2022-08-30T19:52:57.792Z,1.30
2022-08-30T19:55:28.347Z,0.90
2022-08-30T19:57:58.469Z,1.00
2022-08-30T20:00:31.115Z,1.35
2022-08-30T20:03:00.129Z,1.02
2022-08-30T20:05:29.962Z,0.73
2022-08-30T20:07:58.235Z,0.70
2022-08-30T20:10:26.426Z,0.88
2022-08-30T20:12:54.108Z,0.98
2022-08-30T20:15:22.353Z,0.80
2022-08-30T20:18:05.257Z,0.88
2022-08-30T20:20:39.814Z,0.73
2022-08-30T20:23:07.430Z,0.80
2022-08-30T20:25:36.069Z,0.80
2022-08-30T20:28:04.491Z,0.70
2022-08-30T20:30:32.562Z,1.08
2022-08-30T20:33:05.064Z,0.75
2022-08-30T20:35:34.925Z,0.60
2022-08-30T20:38:06.436Z,1.05
2022-08-30T20:40:35.987Z,0.90
2022-08-30T20:43:04.447Z,0.80
2022-08-30T20:45:33.857Z,0.73
2022-08-30T20:48:03.122Z,0.90
2022-08-30T20:50:30.910Z,0.70
2022-08-30T20:52:58.481Z,0.65
2022-08-30T20:55:26.313Z,0.77
2022-08-30T20:57:53.973Z,1.25
2022-08-30T21:00:21.914Z,0.70
2022-08-30T21:02:49.661Z,0.65
2022-08-30T21:05:18.869Z,0.70
2022-08-30T21:07:47.035Z,0.77
2022-08-30T21:10:21.218Z,0.55
2022-08-30T21:12:51.329Z,0.60
2022-08-30T21:15:37.745Z,0.50
2022-08-30T21:18:06.213Z,1.00
2022-08-30T21:20:35.920Z,0.65
2022-08-30T21:23:03.801Z,0.90
2022-08-30T21:25:33.248Z,0.80
2022-08-30T21:28:01.327Z,0.90
2022-08-30T21:30:28.991Z,0.95
2022-08-30T21:32:59.891Z,1.02
2022-08-30T21:35:46.487Z,1.08
2022-08-30T21:38:15.980Z,0.90
2022-08-30T21:40:44.280Z,1.13
2022-08-30T21:43:12.593Z,0.80
2022-08-30T21:45:40.784Z,0.93
2022-08-30T21:48:09.005Z,1.05
2022-08-30T21:50:39.808Z,0.80
2022-08-30T21:53:07.548Z,0.80
2022-08-30T21:55:36.794Z,1.13
2022-08-30T21:58:04.451Z,1.00
2022-08-30T22:00:33.490Z,0.90
2022-08-30T22:03:01.526Z,0.90
2022-08-30T22:05:29.345Z,1.33
2022-08-30T22:07:56.897Z,1.15
2022-08-30T22:10:25.197Z,1.10
2022-08-30T22:12:54.245Z,0.90
2022-08-30T22:15:22.280Z,1.20
2022-08-30T22:17:54.698Z,1.13
2022-08-30T22:20:22.459Z,0.90
2022-08-30T22:22:51.761Z,0.95
2022-08-30T22:25:19.628Z,1.20
2022-08-30T22:27:47.448Z,1.00
2022-08-30T22:30:17.652Z,0.80
2022-08-30T22:32:45.394Z,1.10
2022-08-30T22:35:13.281Z,1.00
2022-08-30T22:37:42.793Z,1.05
2022-08-30T22:40:15.883Z,0.95
2022-08-30T22:42:45.058Z,0.85
2022-08-30T22:45:17.697Z,1.00
2022-08-30T22:47:45.427Z,1.17
2022-08-30T22:50:14.283Z,1.15
2022-08-30T22:52:42.058Z,1.30
2022-08-30T22:55:10.168Z,1.20
2022-08-30T22:57:38.666Z,1.30
2022-08-30T23:00:08.906Z,1.40
2022-08-30T23:02:38.162Z,1.40
2022-08-30T23:05:06.656Z,1.50
2022-08-30T23:07:34.553Z,1.48
2022-08-30T23:10:02.553Z,1.10
2022-08-30T23:12:30.379Z,1.02
2022-08-30T23:14:58.189Z,1.25
2022-08-30T23:17:25.868Z,1.30
2022-08-30T23:19:59.280Z,1.10
2022-08-30T23:22:27.022Z,1.10
2022-08-30T23:25:16.058Z,1.00
2022-08-30T23:28:02.250Z,0.88
2022-08-30T23:30:47.608Z,0.85
2022-08-30T23:33:33.541Z,1.30
2022-08-30T23:36:26.510Z,1.10
2022-08-30T23:39:11.910Z,1.20
2022-08-30T23:41:57.056Z,1.00
2022-08-30T23:44:42.567Z,1.50
2022-08-30T23:47:28.268Z,0.80
2022-08-30T23:50:17.120Z,0.90
2022-08-30T23:53:03.573Z,0.88
2022-08-30T23:55:48.975Z,0.90
2022-08-30T23:58:35.527Z,1.10
